Time;durP1;ratioP1;P1;durP2;ratioP2;P2;SDS_P1;SDS_P2;PMS_P1;PMS_P2;Temp;Humidity;BMP_temperature;BMP_pressure;BME280_temperature;BME280_humidity;BME280_pressure;Samples;Min_cycle;Max_cycle;Signal;HPM_P1;HPM_P2
2021/08/01 00:01:04;;;;;;;;;;;24.70;74.40;;;;;;5213493;28;19925;-70
2021/08/01 00:03:37;;;;;;;;;;;24.70;74.40;;;;;;5214338;28;19971;-70
2021/08/01 00:06:21;;;;;;;;;;;24.70;74.40;;;;;;5215642;28;19983;-71
2021/08/01 00:08:54;;;;;;;;;;;24.70;74.40;;;;;;5207852;28;20357;-71
2021/08/01 00:11:26;;;;;;;;;;;24.70;74.40;;;;;;5218240;28;19925;-70
2021/08/01 00:13:58;;;;;;;;;;;24.70;74.40;;;;;;5215857;28;19925;-70
2021/08/01 00:16:30;;;;;;;;;;;24.70;74.40;;;;;;5212763;28;19925;-70
2021/08/01 00:19:03;;;;;;;;;;;24.70;74.40;;;;;;5217823;28;20302;-71
2021/08/01 00:21:35;;;;;;;;;;;24.70;74.40;;;;;;5213185;28;19929;-70
2021/08/01 00:24:07;;;;;;;;;;;24.70;74.40;;;;;;5213935;28;19929;-70
2021/08/01 00:26:39;;;;;;;;;;;24.70;74.40;;;;;;5215247;28;20294;-70
2021/08/01 00:29:11;;;;;;;;;;;24.70;74.40;;;;;;5224246;28;20374;-70
2021/08/01 00:31:43;;;;;;;;;;;24.70;74.40;;;;;;5221557;28;19932;-70
2021/08/01 00:34:16;;;;;;;;;;;24.70;74.40;;;;;;5224270;28;19932;-70
2021/08/01 00:36:48;;;;;;;;;;;24.70;74.40;;;;;;5216897;28;19929;-70
2021/08/01 00:39:20;;;;;;;;;;;24.70;74.40;;;;;;5225995;28;20278;-70
2021/08/01 00:41:52;;;;;;;;;;;24.70;74.40;;;;;;5226446;28;19932;-70
2021/08/01 00:44:25;;;;;;;;;;;24.70;74.40;;;;;;5221490;28;19996;-70
2021/08/01 00:46:57;;;;;;;;;;;24.70;74.40;;;;;;5222551;28;19938;-70
2021/08/01 00:49:29;;;;;;;;;;;24.70;74.40;;;;;;5226342;28;19929;-70
2021/08/01 00:52:03;;;;;;;;;;;24.70;74.40;;;;;;5220082;28;19925;-70
2021/08/01 00:54:36;;;;;;;;;;;24.70;74.40;;;;;;5201066;28;20369;-70
2021/08/01 00:57:08;;;;;;;;;;;24.70;74.40;;;;;;5221442;28;19924;-71
2021/08/01 00:59:41;;;;;;;;;;;24.70;74.40;;;;;;5222238;28;19936;-70
2021/08/01 01:02:18;;;;;;;;;;;24.70;74.40;;;;;;5223054;28;19936;-70
2021/08/01 01:04:58;;;;;;;;;;;24.60;74.40;;;;;;5221057;28;19939;-70
2021/08/01 01:07:50;;;;;;;;;;;24.70;74.40;;;;;;5220154;28;19944;-70
2021/08/01 01:10:43;;;;;;;;;;;24.70;74.40;;;;;;5212557;28;19925;-70
2021/08/01 01:13:40;;;;;;;;;;;24.70;74.40;;;;;;5197971;28;20317;-70
2021/08/01 01:16:12;;;;;;;;;;;24.60;74.30;;;;;;5215136;28;19925;-70
2021/08/01 01:18:48;;;;;;;;;;;24.70;74.40;;;;;;5219122;28;19932;-71
2021/08/01 01:21:34;;;;;;;;;;;24.70;74.40;;;;;;5215935;28;20279;-70
2021/08/01 01:24:08;;;;;;;;;;;24.70;74.40;;;;;;5214591;28;20031;-70
2021/08/01 01:26:52;;;;;;;;;;;24.70;74.40;;;;;;5221103;28;20405;-70
2021/08/01 01:29:27;;;;;;;;;;;24.70;74.40;;;;;;5214657;28;19924;-70
2021/08/01 01:32:04;;;;;;;;;;;24.70;74.40;;;;;;5217222;28;19931;-70
2021/08/01 01:34:37;;;;;;;;;;;24.70;74.40;;;;;;5219828;28;19936;-70
2021/08/01 01:37:11;;;;;;;;;;;24.70;74.40;;;;;;5215164;28;19929;-71
2021/08/01 01:39:46;;;;;;;;;;;24.70;74.40;;;;;;5226174;28;20385;-70
2021/08/01 01:42:45;;;;;;;;;;;24.70;74.40;;;;;;5207488;28;19929;-70
2021/08/01 01:45:22;;;;;;;;;;;24.70;74.40;;;;;;5214442;28;20336;-71
2021/08/01 01:47:55;;;;;;;;;;;24.60;74.30;;;;;;5228197;28;20319;-70
2021/08/01 01:50:28;;;;;;;;;;;24.60;74.30;;;;;;5208792;28;19936;-71
2021/08/01 01:53:00;;;;;;;;;;;24.70;74.40;;;;;;5217610;28;19929;-71
2021/08/01 01:55:34;;;;;;;;;;;24.60;74.30;;;;;;5234121;28;20416;-71
2021/08/01 01:58:08;;;;;;;;;;;24.70;74.40;;;;;;5217862;28;19925;-71
2021/08/01 02:00:40;;;;;;;;;;;24.60;74.30;;;;;;5213329;28;19936;-72
2021/08/01 02:03:13;;;;;;;;;;;24.60;74.30;;;;;;5208112;28;20309;-71
2021/08/01 02:06:03;;;;;;;;;;;24.60;74.30;;;;;;5208899;28;19933;-72
2021/08/01 02:09:27;;;;;;;;;;;24.60;74.30;;;;;;5197133;28;19952;-71
2021/08/01 02:12:12;;;;;;;;;;;24.70;74.40;;;;;;5209377;28;19939;-70
2021/08/01 02:15:03;;;;;;;;;;;24.60;74.30;;;;;;5206213;28;19956;-70
2021/08/01 02:17:45;;;;;;;;;;;24.60;74.40;;;;;;5217942;28;19929;-70
2021/08/01 02:20:20;;;;;;;;;;;24.70;74.40;;;;;;5205714;28;19933;-70
2021/08/01 02:23:23;;;;;;;;;;;24.60;74.30;;;;;;5202550;28;19932;-71
2021/08/01 02:25:57;;;;;;;;;;;24.60;74.40;;;;;;5211994;28;19955;-71
2021/08/01 02:28:31;;;;;;;;;;;24.60;74.30;;;;;;5214422;28;19932;-71
2021/08/01 02:31:04;;;;;;;;;;;24.60;74.30;;;;;;5211729;28;19929;-71
2021/08/01 02:33:38;;;;;;;;;;;24.60;74.30;;;;;;5223814;28;19955;-71
2021/08/01 02:36:19;;;;;;;;;;;24.60;74.30;;;;;;5225895;28;20394;-71
2021/08/01 02:38:57;;;;;;;;;;;24.60;74.30;;;;;;5209646;28;19932;-70
2021/08/01 02:41:31;;;;;;;;;;;24.60;74.30;;;;;;5225052;28;20328;-70
2021/08/01 02:44:07;;;;;;;;;;;24.60;74.30;;;;;;5224629;28;19928;-70
2021/08/01 02:46:41;;;;;;;;;;;24.60;74.30;;;;;;5209409;28;19936;-70
2021/08/01 02:49:18;;;;;;;;;;;24.60;74.30;;;;;;5219589;28;19944;-70
2021/08/01 02:51:52;;;;;;;;;;;24.60;74.20;;;;;;5207710;28;19924;-71
2021/08/01 02:54:26;;;;;;;;;;;24.60;74.30;;;;;;5190244;28;19925;-71
2021/08/01 02:57:01;;;;;;;;;;;24.60;74.30;;;;;;5209798;28;19932;-71
2021/08/01 02:59:35;;;;;;;;;;;24.60;74.30;;;;;;5209021;28;19928;-70
2021/08/01 03:02:10;;;;;;;;;;;24.60;74.20;;;;;;5213211;28;20382;-70
2021/08/01 03:04:56;;;;;;;;;;;24.60;74.20;;;;;;5212875;28;20488;-70
2021/08/01 03:07:28;;;;;;;;;;;24.60;74.30;;;;;;5222023;28;19940;-70
2021/08/01 03:10:00;;;;;;;;;;;24.60;74.20;;;;;;5212232;28;19933;-70
2021/08/01 03:12:45;;;;;;;;;;;24.60;74.20;;;;;;5213505;28;19936;-70
2021/08/01 03:15:21;;;;;;;;;;;24.60;74.30;;;;;;5202945;28;19939;-71
2021/08/01 03:17:53;;;;;;;;;;;24.60;74.20;;;;;;5215763;28;20406;-70
2021/08/01 03:20:26;;;;;;;;;;;24.60;74.20;;;;;;5209713;28;19929;-70
2021/08/01 03:23:21;;;;;;;;;;;24.60;74.30;;;;;;5208682;28;20301;-70
2021/08/01 03:26:22;;;;;;;;;;;24.60;74.20;;;;;;5214924;28;19933;-71
2021/08/01 03:28:55;;;;;;;;;;;24.60;74.30;;;;;;5214522;28;20404;-70
2021/08/01 03:31:28;;;;;;;;;;;24.60;74.20;;;;;;5210387;28;20367;-70
2021/08/01 03:34:00;;;;;;;;;;;24.60;74.20;;;;;;5205062;28;20313;-71
2021/08/01 03:36:36;;;;;;;;;;;24.60;74.20;;;;;;5207606;28;19929;-70
2021/08/01 03:39:08;;;;;;;;;;;24.60;74.30;;;;;;5207564;28;20275;-70
2021/08/01 03:41:51;;;;;;;;;;;24.60;74.30;;;;;;5205205;28;19936;-71
2021/08/01 03:44:27;;;;;;;;;;;24.60;74.20;;;;;;5205180;28;19929;-71
2021/08/01 03:46:59;;;;;;;;;;;24.60;74.20;;;;;;5203582;28;19933;-71
2021/08/01 03:49:32;;;;;;;;;;;24.60;74.20;;;;;;5203479;28;19925;-70
2021/08/01 03:52:04;;;;;;;;;;;24.60;74.20;;;;;;5202485;28;20362;-70
2021/08/01 03:54:36;;;;;;;;;;;24.60;74.20;;;;;;5204760;28;19943;-71
2021/08/01 03:57:10;;;;;;;;;;;24.60;74.20;;;;;;5203082;28;19932;-70
2021/08/01 03:59:43;;;;;;;;;;;24.60;74.20;;;;;;5203771;28;20389;-71
2021/08/01 04:02:15;;;;;;;;;;;24.60;74.20;;;;;;5199084;28;20386;-71
2021/08/01 04:04:47;;;;;;;;;;;24.60;74.20;;;;;;5221007;28;19928;-71
2021/08/01 04:07:20;;;;;;;;;;;24.60;74.20;;;;;;5204092;28;20298;-71
2021/08/01 04:09:52;;;;;;;;;;;24.60;74.20;;;;;;5203133;28;19935;-71
2021/08/01 04:12:24;;;;;;;;;;;24.60;74.10;;;;;;5201220;28;20409;-71
2021/08/01 04:14:57;;;;;;;;;;;24.60;74.10;;;;;;5203129;28;19991;-71
2021/08/01 04:17:31;;;;;;;;;;;24.60;74.10;;;;;;5201009;28;19933;-70
2021/08/01 04:20:03;;;;;;;;;;;24.60;74.20;;;;;;5210073;28;19928;-71
2021/08/01 04:22:35;;;;;;;;;;;24.60;74.20;;;;;;5204862;28;19929;-71
2021/08/01 04:25:08;;;;;;;;;;;24.60;74.20;;;;;;5202058;28;19929;-70
2021/08/01 04:27:41;;;;;;;;;;;24.60;74.20;;;;;;5202061;28;20100;-70
2021/08/01 04:30:13;;;;;;;;;;;24.60;74.20;;;;;;5209251;28;19935;-70
2021/08/01 04:32:46;;;;;;;;;;;24.60;74.10;;;;;;5210363;28;19936;-70
2021/08/01 04:35:18;;;;;;;;;;;24.60;74.20;;;;;;5204031;28;19925;-70
2021/08/01 04:37:50;;;;;;;;;;;24.60;74.20;;;;;;5189803;28;19939;-71
2021/08/01 04:40:22;;;;;;;;;;;24.60;74.20;;;;;;5204800;28;19939;-70
2021/08/01 04:42:54;;;;;;;;;;;24.60;74.20;;;;;;5208444;28;19928;-70
2021/08/01 04:45:26;;;;;;;;;;;24.60;74.20;;;;;;5205980;28;19925;-71
2021/08/01 04:47:59;;;;;;;;;;;24.60;74.20;;;;;;5204109;28;19932;-70
2021/08/01 04:50:31;;;;;;;;;;;24.60;74.80;;;;;;5196354;28;20381;-70
2021/08/01 04:53:03;;;;;;;;;;;24.60;74.10;;;;;;5193984;28;19928;-70
2021/08/01 04:55:36;;;;;;;;;;;24.60;74.10;;;;;;5190707;28;19933;-71
2021/08/01 04:58:08;;;;;;;;;;;24.60;74.10;;;;;;5187829;28;20406;-71
2021/08/01 05:00:40;;;;;;;;;;;24.60;74.10;;;;;;5198026;28;19932;-71
2021/08/01 05:03:12;;;;;;;;;;;24.60;74.10;;;;;;5205473;28;19929;-70
2021/08/01 05:05:45;;;;;;;;;;;24.60;74.10;;;;;;5198129;28;19929;-71
2021/08/01 05:08:17;;;;;;;;;;;24.60;74.10;;;;;;5198876;28;20301;-71
2021/08/01 05:10:49;;;;;;;;;;;24.60;74.10;;;;;;5198011;28;20475;-71
2021/08/01 05:13:21;;;;;;;;;;;24.60;74.10;;;;;;5193095;28;19955;-71
2021/08/01 05:15:53;;;;;;;;;;;24.60;74.10;;;;;;5189980;28;19928;-70
2021/08/01 05:18:26;;;;;;;;;;;24.60;74.10;;;;;;5212040;28;19932;-69
2021/08/01 05:20:58;;;;;;;;;;;24.60;74.10;;;;;;5225598;28;19925;-69
2021/08/01 05:23:30;;;;;;;;;;;24.60;74.10;;;;;;5211084;28;19940;-70
2021/08/01 05:26:02;;;;;;;;;;;24.60;74.10;;;;;;5190281;28;19929;-71
2021/08/01 05:28:34;;;;;;;;;;;24.50;74.20;;;;;;5189708;28;20339;-70
2021/08/01 05:31:09;;;;;;;;;;;24.50;74.10;;;;;;4494197;28;10000327;-71
2021/08/01 05:33:41;;;;;;;;;;;24.60;74.20;;;;;;5192722;28;19940;-70
2021/08/01 05:36:13;;;;;;;;;;;24.60;74.10;;;;;;5190440;28;20374;-71
2021/08/01 05:38:46;;;;;;;;;;;24.60;74.00;;;;;;5189335;28;20555;-71
2021/08/01 05:41:20;;;;;;;;;;;24.50;73.90;;;;;;5190063;28;19933;-71
2021/08/01 05:43:53;;;;;;;;;;;24.50;73.90;;;;;;5185857;28;19929;-70
2021/08/01 05:46:25;;;;;;;;;;;24.60;73.90;;;;;;5184692;28;19936;-70
2021/08/01 05:48:57;;;;;;;;;;;24.50;73.80;;;;;;5184648;28;20558;-71
2021/08/01 05:51:29;;;;;;;;;;;24.60;73.80;;;;;;5182725;28;19928;-70
2021/08/01 05:54:01;;;;;;;;;;;24.50;73.70;;;;;;5183438;28;19929;-70
2021/08/01 05:56:34;;;;;;;;;;;24.50;73.70;;;;;;5182378;28;19933;-73
2021/08/01 05:59:06;;;;;;;;;;;24.50;73.70;;;;;;5182833;28;19952;-70
2021/08/01 06:01:39;;;;;;;;;;;24.50;74.30;;;;;;5176578;28;19933;-71
2021/08/01 06:04:11;;;;;;;;;;;24.50;73.70;;;;;;5181046;28;19940;-70
2021/08/01 06:06:43;;;;;;;;;;;24.50;73.70;;;;;;5181259;28;19951;-71
2021/08/01 06:09:15;;;;;;;;;;;24.50;73.80;;;;;;5187442;28;19939;-70
2021/08/01 06:11:47;;;;;;;;;;;24.50;73.70;;;;;;5186058;28;19929;-70
2021/08/01 06:14:19;;;;;;;;;;;24.50;73.70;;;;;;5185393;28;19961;-71
2021/08/01 06:16:52;;;;;;;;;;;24.50;73.70;;;;;;5185770;28;19944;-71
2021/08/01 06:19:24;;;;;;;;;;;24.50;73.70;;;;;;5187905;28;19929;-70
2021/08/01 06:21:56;;;;;;;;;;;24.50;73.70;;;;;;5185400;28;19940;-70
2021/08/01 06:24:28;;;;;;;;;;;24.50;73.70;;;;;;5194396;28;19929;-71
2021/08/01 06:27:02;;;;;;;;;;;24.50;73.70;;;;;;5186413;28;19933;-70
2021/08/01 06:29:34;;;;;;;;;;;24.50;73.70;;;;;;5186056;28;20626;-71
2021/08/01 06:32:06;;;;;;;;;;;24.50;73.70;;;;;;5184927;28;19932;-71
2021/08/01 06:34:39;;;;;;;;;;;24.50;73.70;;;;;;5186365;28;19933;-70
2021/08/01 06:37:11;;;;;;;;;;;24.50;73.80;;;;;;5195256;28;20358;-71
2021/08/01 06:39:43;;;;;;;;;;;24.50;73.70;;;;;;5194437;28;19928;-71
2021/08/01 06:42:15;;;;;;;;;;;24.50;73.70;;;;;;5192393;28;19932;-70
2021/08/01 06:44:47;;;;;;;;;;;24.50;73.80;;;;;;5191643;28;19928;-70
2021/08/01 06:47:20;;;;;;;;;;;24.50;73.80;;;;;;5190533;28;20087;-70
2021/08/01 06:49:52;;;;;;;;;;;24.50;73.80;;;;;;5189069;28;20369;-70
2021/08/01 06:52:40;;;;;;;;;;;24.50;73.70;;;;;;5189336;28;19940;-71
2021/08/01 06:55:13;;;;;;;;;;;24.50;73.70;;;;;;5187910;28;20432;-70
2021/08/01 06:57:45;;;;;;;;;;;24.50;73.70;;;;;;5185813;28;20369;-71
2021/08/01 07:00:20;;;;;;;;;;;24.50;73.70;;;;;;5186343;28;20383;-70
2021/08/01 07:02:53;;;;;;;;;;;24.60;73.70;;;;;;5197550;28;19959;-70
2021/08/01 07:05:27;;;;;;;;;;;24.50;73.70;;;;;;5192323;28;19940;-69
2021/08/01 07:07:59;;;;;;;;;;;24.50;73.70;;;;;;5182139;28;20378;-70
2021/08/01 07:10:31;;;;;;;;;;;24.50;73.70;;;;;;5183261;28;20389;-70
2021/08/01 07:13:05;;;;;;;;;;;24.50;73.70;;;;;;5187246;28;19933;-70
2021/08/01 07:15:37;;;;;;;;;;;24.60;73.80;;;;;;5185084;28;19932;-70
2021/08/01 07:18:09;;;;;;;;;;;24.60;73.80;;;;;;5193310;28;19933;-70
2021/08/01 07:20:42;;;;;;;;;;;24.60;73.70;;;;;;5183728;28;19933;-70
2021/08/01 07:23:14;;;;;;;;;;;24.60;73.70;;;;;;5184424;28;19958;-70
2021/08/01 07:25:46;;;;;;;;;;;24.60;73.60;;;;;;5181707;28;19929;-70
2021/08/01 07:28:18;;;;;;;;;;;24.60;73.50;;;;;;5184605;28;19928;-70
2021/08/01 07:30:52;;;;;;;;;;;24.60;73.50;;;;;;5182993;28;19944;-69
2021/08/01 07:33:29;;;;;;;;;;;24.50;73.50;;;;;;5191162;28;19931;-69
2021/08/01 07:36:02;;;;;;;;;;;24.60;73.50;;;;;;5189956;28;20348;-70
2021/08/01 07:38:34;;;;;;;;;;;24.60;73.40;;;;;;5186234;28;19929;-70
2021/08/01 07:41:06;;;;;;;;;;;24.60;73.40;;;;;;5188411;28;20648;-69
2021/08/01 07:43:38;;;;;;;;;;;24.60;73.40;;;;;;5189940;28;20488;-70
2021/08/01 07:46:11;;;;;;;;;;;24.60;73.30;;;;;;5198782;28;19929;-69
2021/08/01 07:48:43;;;;;;;;;;;24.60;73.30;;;;;;5189406;28;19943;-70
2021/08/01 07:51:15;;;;;;;;;;;24.60;73.30;;;;;;5188504;28;20282;-70
2021/08/01 07:53:47;;;;;;;;;;;24.60;73.30;;;;;;5191673;28;19928;-70
2021/08/01 07:56:19;;;;;;;;;;;24.60;73.30;;;;;;5190396;28;19928;-70
2021/08/01 07:58:51;;;;;;;;;;;24.60;73.30;;;;;;5192056;28;20032;-69
2021/08/01 08:01:24;;;;;;;;;;;24.60;73.20;;;;;;5199038;28;19936;-70
2021/08/01 08:03:56;;;;;;;;;;;24.60;73.20;;;;;;5192096;28;20231;-70
2021/08/01 08:06:28;;;;;;;;;;;24.60;73.20;;;;;;5189911;28;20420;-70
2021/08/01 08:09:02;;;;;;;;;;;24.60;73.20;;;;;;5172666;28;19933;-70
2021/08/01 08:11:34;;;;;;;;;;;24.60;73.20;;;;;;5190315;28;19936;-70
2021/08/01 08:14:07;;;;;;;;;;;24.60;73.20;;;;;;5194363;28;19932;-68
2021/08/01 08:16:39;;;;;;;;;;;24.60;73.20;;;;;;5190360;28;20553;-68
2021/08/01 08:19:11;;;;;;;;;;;24.60;73.10;;;;;;5191382;28;19933;-67
2021/08/01 08:21:43;;;;;;;;;;;24.60;73.20;;;;;;5192035;28;19940;-68
2021/08/01 08:24:16;;;;;;;;;;;24.60;73.10;;;;;;5187458;28;19936;-67
2021/08/01 08:26:49;;;;;;;;;;;24.60;73.10;;;;;;5207864;28;20574;-68
2021/08/01 08:29:24;;;;;;;;;;;24.60;73.10;;;;;;5193492;28;20394;-68
2021/08/01 08:31:58;;;;;;;;;;;24.60;73.00;;;;;;5192038;28;19928;-68
2021/08/01 08:34:30;;;;;;;;;;;24.60;73.00;;;;;;5189308;28;19929;-68
2021/08/01 08:37:02;;;;;;;;;;;24.60;73.00;;;;;;5193400;28;20296;-68
2021/08/01 08:39:34;;;;;;;;;;;24.60;72.90;;;;;;5190803;28;19929;-68
2021/08/01 08:42:07;;;;;;;;;;;24.70;72.90;;;;;;5197986;28;19939;-68
2021/08/01 08:44:39;;;;;;;;;;;24.70;73.00;;;;;;5193131;28;20493;-67
2021/08/01 08:47:18;;;;;;;;;;;24.70;73.00;;;;;;5194970;28;19929;-67
2021/08/01 08:49:51;;;;;;;;;;;24.70;73.00;;;;;;5195507;28;19932;-67
2021/08/01 08:52:24;;;;;;;;;;;24.70;72.90;;;;;;5194730;28;20405;-67
2021/08/01 08:54:59;;;;;;;;;;;24.70;72.90;;;;;;5189035;28;19933;-67
2021/08/01 08:57:37;;;;;;;;;;;24.70;72.90;;;;;;5202026;28;19929;-67
2021/08/01 09:00:10;;;;;;;;;;;24.60;72.80;;;;;;5199686;28;19933;-67
2021/08/01 09:02:43;;;;;;;;;;;24.70;72.90;;;;;;5197850;28;19929;-68
2021/08/01 09:05:16;;;;;;;;;;;24.70;72.90;;;;;;5199337;28;20180;-67
2021/08/01 09:07:49;;;;;;;;;;;24.70;72.90;;;;;;5201105;28;20397;-68
2021/08/01 09:10:21;;;;;;;;;;;24.70;72.80;;;;;;5202412;28;19932;-67
2021/08/01 09:12:54;;;;;;;;;;;24.70;72.80;;;;;;5199312;28;20294;-68
2021/08/01 09:15:28;;;;;;;;;;;24.70;72.80;;;;;;5198037;28;19925;-67
2021/08/01 09:18:08;;;;;;;;;;;24.70;72.80;;;;;;5202401;28;19940;-68
2021/08/01 09:20:48;;;;;;;;;;;24.70;72.80;;;;;;5202938;28;20340;-68
2021/08/01 09:23:20;;;;;;;;;;;24.70;72.80;;;;;;5203165;28;19924;-68
2021/08/01 09:25:57;;;;;;;;;;;24.70;72.80;;;;;;5205106;28;19929;-67
2021/08/01 09:28:29;;;;;;;;;;;24.70;72.70;;;;;;5208135;28;19932;-67
2021/08/01 09:31:03;;;;;;;;;;;24.80;72.80;;;;;;5202864;28;19944;-68
2021/08/01 09:33:35;;;;;;;;;;;24.70;72.80;;;;;;5201226;28;19935;-68
2021/08/01 09:36:18;;;;;;;;;;;24.70;72.70;;;;;;5204620;28;19933;-68
2021/08/01 09:39:04;;;;;;;;;;;24.70;72.70;;;;;;5213419;28;20263;-67
2021/08/01 09:41:36;;;;;;;;;;;24.70;72.70;;;;;;5210781;28;19940;-68
2021/08/01 09:44:17;;;;;;;;;;;24.80;72.70;;;;;;5210759;28;20346;-68
2021/08/01 09:46:50;;;;;;;;;;;24.70;72.70;;;;;;5207511;28;19933;-67
2021/08/01 09:49:23;;;;;;;;;;;24.80;72.70;;;;;;5209419;28;19933;-67
2021/08/01 09:51:57;;;;;;;;;;;24.70;72.60;;;;;;5214054;28;19932;-67
2021/08/01 09:54:45;;;;;;;;;;;24.80;72.70;;;;;;5213692;28;19932;-67
2021/08/01 09:57:19;;;;;;;;;;;24.70;72.60;;;;;;5226987;28;19929;-67
2021/08/01 10:00:07;;;;;;;;;;;24.70;72.60;;;;;;5212601;28;19925;-67
2021/08/01 10:02:40;;;;;;;;;;;24.70;72.60;;;;;;5215013;28;19924;-67
2021/08/01 10:05:14;;;;;;;;;;;24.80;72.60;;;;;;5211125;28;20043;-67
2021/08/01 10:07:47;;;;;;;;;;;24.70;72.60;;;;;;5215778;28;19939;-67
2021/08/01 10:10:19;;;;;;;;;;;24.80;72.60;;;;;;5217090;28;19935;-67
2021/08/01 10:12:53;;;;;;;;;;;24.80;73.30;;;;;;5216985;28;19925;-67
2021/08/01 10:15:26;;;;;;;;;;;24.80;72.60;;;;;;5217620;28;19947;-67
2021/08/01 10:17:58;;;;;;;;;;;24.80;72.60;;;;;;5217082;28;20329;-67
2021/08/01 10:20:31;;;;;;;;;;;24.80;72.60;;;;;;5219672;28;19925;-67
2021/08/01 10:23:03;;;;;;;;;;;24.80;72.60;;;;;;5211770;28;20321;-67
2021/08/01 10:25:36;;;;;;;;;;;24.80;72.60;;;;;;5235323;28;19929;-67
2021/08/01 10:28:10;;;;;;;;;;;24.80;72.60;;;;;;5221838;28;19924;-67
2021/08/01 10:30:44;;;;;;;;;;;24.80;73.30;;;;;;5217693;28;19936;-67
2021/08/01 10:33:20;;;;;;;;;;;24.80;72.60;;;;;;5216983;28;19925;-67
2021/08/01 10:35:56;;;;;;;;;;;24.80;72.70;;;;;;5220924;28;19963;-67
2021/08/01 10:38:30;;;;;;;;;;;24.80;72.60;;;;;;5219565;28;19933;-67
2021/08/01 10:41:05;;;;;;;;;;;24.80;72.70;;;;;;5222790;28;20298;-67
2021/08/01 10:43:38;;;;;;;;;;;24.80;72.60;;;;;;5217822;28;19925;-67
2021/08/01 10:46:10;;;;;;;;;;;24.80;72.60;;;;;;5220840;28;20855;-67
2021/08/01 10:48:42;;;;;;;;;;;24.80;72.60;;;;;;5224056;28;19928;-67
2021/08/01 10:51:14;;;;;;;;;;;24.80;72.60;;;;;;5222560;28;20410;-66
2021/08/01 10:53:47;;;;;;;;;;;24.80;72.60;;;;;;5218529;28;19925;-67
2021/08/01 10:56:25;;;;;;;;;;;24.80;72.70;;;;;;5218956;28;19931;-67
2021/08/01 10:58:57;;;;;;;;;;;24.80;72.70;;;;;;5224327;28;19925;-67
2021/08/01 11:01:29;;;;;;;;;;;24.70;72.60;;;;;;5221154;28;19928;-67
2021/08/01 11:04:26;;;;;;;;;;;24.70;72.60;;;;;;5224483;28;20317;-66
2021/08/01 11:06:58;;;;;;;;;;;24.70;72.60;;;;;;5222469;28;19932;-67
2021/08/01 11:09:31;;;;;;;;;;;24.80;72.70;;;;;;5227478;28;20594;-67
2021/08/01 11:12:26;;;;;;;;;;;24.70;72.70;;;;;;5220231;28;19940;-67
2021/08/01 11:15:02;;;;;;;;;;;24.70;72.70;;;;;;5214268;28;20297;-67
2021/08/01 11:17:40;;;;;;;;;;;24.70;72.70;;;;;;5204903;28;19932;-67
2021/08/01 11:20:15;;;;;;;;;;;24.70;72.70;;;;;;5220169;28;19929;-67
2021/08/01 11:22:48;;;;;;;;;;;24.70;72.80;;;;;;5223592;28;19925;-66
2021/08/01 11:25:31;;;;;;;;;;;24.70;72.80;;;;;;5225090;28;19932;-67
2021/08/01 11:28:09;;;;;;;;;;;24.70;72.80;;;;;;5226300;28;20153;-67
2021/08/01 11:33:45;;;;;;;;;;;24.70;72.80;;;;;;5224246;28;19936;-67
2021/08/01 11:36:18;;;;;;;;;;;24.70;72.80;;;;;;5226295;28;20287;-67
2021/08/01 11:38:50;;;;;;;;;;;24.70;72.80;;;;;;5220673;28;19933;-67
2021/08/01 11:41:26;;;;;;;;;;;24.70;72.80;;;;;;5224223;28;19940;-67
2021/08/01 11:44:21;;;;;;;;;;;24.70;72.80;;;;;;5225808;28;19925;-67
2021/08/01 11:47:00;;;;;;;;;;;24.70;72.80;;;;;;5224261;28;19936;-66
2021/08/01 11:49:32;;;;;;;;;;;24.70;72.80;;;;;;5223450;28;19940;-67
2021/08/01 11:52:06;;;;;;;;;;;24.70;72.80;;;;;;5218342;28;20194;-67
2021/08/01 11:54:39;;;;;;;;;;;24.70;72.90;;;;;;5213440;28;20475;-67
2021/08/01 11:57:13;;;;;;;;;;;24.60;72.80;;;;;;5212680;28;20107;-67
2021/08/01 11:59:51;;;;;;;;;;;24.60;72.90;;;;;;5203053;28;19932;-67
2021/08/01 12:02:23;;;;;;;;;;;24.60;72.90;;;;;;5199521;28;19940;-66
2021/08/01 12:04:59;;;;;;;;;;;24.60;72.90;;;;;;5208314;28;19952;-69
2021/08/01 12:07:41;;;;;;;;;;;24.60;73.00;;;;;;5194625;28;19938;-69
2021/08/01 12:10:14;;;;;;;;;;;24.60;72.90;;;;;;5202898;28;19932;-69
2021/08/01 12:12:47;;;;;;;;;;;24.60;73.00;;;;;;4852671;28;10000441;-69
2021/08/01 12:15:22;;;;;;;;;;;24.60;72.90;;;;;;5189502;28;20377;-69
2021/08/01 12:17:54;;;;;;;;;;;24.60;73.00;;;;;;5195425;28;20787;-69
2021/08/01 12:20:30;;;;;;;;;;;24.60;73.00;;;;;;5195455;28;19929;-67
2021/08/01 12:23:05;;;;;;;;;;;24.60;73.00;;;;;;5198094;28;19940;-69
2021/08/01 12:25:44;;;;;;;;;;;24.60;72.90;;;;;;5196507;28;20573;-69
2021/08/01 12:28:17;;;;;;;;;;;24.60;73.00;;;;;;5193065;28;19944;-67
2021/08/01 12:30:49;;;;;;;;;;;24.60;73.00;;;;;;5191419;28;19971;-67
2021/08/01 12:33:22;;;;;;;;;;;24.60;73.00;;;;;;5193354;28;19929;-67
2021/08/01 12:35:54;;;;;;;;;;;24.60;73.00;;;;;;5193263;28;20309;-67
2021/08/01 12:38:26;;;;;;;;;;;24.60;73.00;;;;;;5189212;28;20530;-67
2021/08/01 12:41:10;;;;;;;;;;;24.60;73.00;;;;;;5197839;28;19928;-67
2021/08/01 12:43:42;;;;;;;;;;;24.60;73.00;;;;;;5190286;28;19933;-69
2021/08/01 12:46:16;;;;;;;;;;;24.60;73.00;;;;;;5190331;28;19943;-69
2021/08/01 12:48:48;;;;;;;;;;;24.60;73.60;;;;;;5193201;28;19943;-69
2021/08/01 12:51:20;;;;;;;;;;;24.60;73.00;;;;;;5192499;28;19931;-69
2021/08/01 12:53:53;;;;;;;;;;;24.60;72.90;;;;;;5195505;28;20232;-69
2021/08/01 12:56:25;;;;;;;;;;;24.60;73.00;;;;;;5190889;28;21044;-69
2021/08/01 12:59:10;;;;;;;;;;;24.60;73.00;;;;;;5188148;28;19929;-69
2021/08/01 13:01:44;;;;;;;;;;;24.60;73.00;;;;;;5192457;28;19929;-69
2021/08/01 13:04:17;;;;;;;;;;;24.60;73.00;;;;;;5193505;28;20165;-69
2021/08/01 13:06:58;;;;;;;;;;;24.60;73.10;;;;;;5195264;28;19932;-69
2021/08/01 13:09:31;;;;;;;;;;;24.60;73.10;;;;;;5195580;28;19960;-66
2021/08/01 13:12:10;;;;;;;;;;;24.60;73.10;;;;;;5192946;28;19939;-67
2021/08/01 13:14:43;;;;;;;;;;;24.60;73.10;;;;;;5193629;28;19932;-67
2021/08/01 13:17:18;;;;;;;;;;;24.60;73.10;;;;;;5193182;28;19933;-67
2021/08/01 13:19:50;;;;;;;;;;;24.60;73.10;;;;;;5202089;28;20167;-67
2021/08/01 13:22:34;;;;;;;;;;;24.60;73.10;;;;;;5207637;28;19944;-66
2021/08/01 13:25:07;;;;;;;;;;;24.60;73.10;;;;;;5190638;28;19933;-67
2021/08/01 13:27:49;;;;;;;;;;;24.60;73.10;;;;;;5184894;28;19924;-67
2021/08/01 13:30:23;;;;;;;;;;;24.60;73.10;;;;;;5191606;28;19929;-67
2021/08/01 13:32:55;;;;;;;;;;;24.60;73.10;;;;;;5210737;28;19940;-67
2021/08/01 13:35:27;;;;;;;;;;;24.60;73.10;;;;;;5207358;28;19929;-66
2021/08/01 13:38:00;;;;;;;;;;;24.60;73.10;;;;;;5203955;28;19925;-66
2021/08/01 13:40:37;;;;;;;;;;;24.60;73.00;;;;;;5207726;28;20379;-67
2021/08/01 13:43:20;;;;;;;;;;;24.60;73.00;;;;;;5204996;28;19933;-66
2021/08/01 13:45:53;;;;;;;;;;;24.60;73.00;;;;;;5193417;28;19925;-66
2021/08/01 13:48:25;;;;;;;;;;;24.60;73.10;;;;;;5207169;28;19936;-69
2021/08/01 13:50:58;;;;;;;;;;;24.60;73.00;;;;;;5209490;28;19925;-67
2021/08/01 13:53:30;;;;;;;;;;;24.60;73.00;;;;;;5210343;28;20397;-67
2021/08/01 13:56:02;;;;;;;;;;;24.60;73.00;;;;;;5212460;28;19925;-67
2021/08/01 13:58:35;;;;;;;;;;;24.50;73.00;;;;;;5207097;28;19971;-67
2021/08/01 14:01:07;;;;;;;;;;;24.60;73.10;;;;;;5205996;28;20298;-67
2021/08/01 14:03:39;;;;;;;;;;;24.60;73.00;;;;;;5208039;28;20300;-67
2021/08/01 14:06:13;;;;;;;;;;;24.60;73.00;;;;;;5205444;28;19933;-67
2021/08/01 14:08:45;;;;;;;;;;;24.50;73.00;;;;;;5207972;28;19932;-67
2021/08/01 14:11:17;;;;;;;;;;;24.50;73.00;;;;;;5205629;28;20501;-67
2021/08/01 14:13:49;;;;;;;;;;;24.50;73.00;;;;;;5208987;28;20397;-67
2021/08/01 14:16:23;;;;;;;;;;;24.50;73.00;;;;;;5204574;28;20307;-67
2021/08/01 14:18:55;;;;;;;;;;;24.50;73.00;;;;;;5208707;28;19929;-68
2021/08/01 14:21:27;;;;;;;;;;;24.50;73.00;;;;;;5206335;28;19925;-68
2021/08/01 14:23:59;;;;;;;;;;;24.50;73.00;;;;;;5209836;28;19931;-68
2021/08/01 14:26:39;;;;;;;;;;;24.50;73.00;;;;;;5215900;28;19924;-67
2021/08/01 14:29:13;;;;;;;;;;;24.50;73.10;;;;;;5207770;28;20274;-67
2021/08/01 14:31:46;;;;;;;;;;;24.50;73.00;;;;;;5204229;28;19947;-67
2021/08/01 14:34:23;;;;;;;;;;;24.50;73.10;;;;;;5198200;28;19932;-68
2021/08/01 14:36:57;;;;;;;;;;;24.50;73.10;;;;;;5199352;28;19951;-67
2021/08/01 14:39:31;;;;;;;;;;;24.50;73.10;;;;;;5199411;28;19925;-67
2021/08/01 14:42:04;;;;;;;;;;;24.50;73.10;;;;;;4855889;28;10000203;-67
2021/08/01 14:44:36;;;;;;;;;;;24.50;73.10;;;;;;5201833;28;19936;-66
2021/08/01 14:47:18;;;;;;;;;;;24.50;73.70;;;;;;5200917;28;19936;-67
2021/08/01 14:49:52;;;;;;;;;;;24.50;73.10;;;;;;5202853;28;20180;-67
2021/08/01 14:55:16;;;;;;;;;;;24.50;73.10;;;;;;5202272;28;19951;-67
2021/08/01 14:57:53;;;;;;;;;;;24.50;73.10;;;;;;5199752;28;19936;-67
2021/08/01 15:00:32;;;;;;;;;;;24.50;73.10;;;;;;5209405;28;19933;-67
2021/08/01 15:03:11;;;;;;;;;;;24.50;73.10;;;;;;5206929;28;20899;-67
2021/08/01 15:05:45;;;;;;;;;;;24.50;73.20;;;;;;5206651;28;20309;-67